sensor_id;sensor_type;location;lat;lon;timestamp;pressure;altitude;pressure_sealevel;temperature;humidity
9899;BME280;4988;49.238;6.698;2023-07-29T00:00:40;98513.63;;;19.48;100.00
9899;BME280;4988;49.238;6.698;2023-07-29T00:03:05;98511.25;;;19.45;100.00
9899;BME280;4988;49.238;6.698;2023-07-29T00:05:31;98504.13;;;19.44;100.00
9899;BME280;4988;49.238;6.698;2023-07-29T00:07:56;98510.94;;;19.48;100.00
9899;BME280;4988;49.238;6.698;2023-07-29T00:10:22;98508.81;;;19.52;100.00
9899;BME280;4988;49.238;6.698;2023-07-29T00:12:47;98504.38;;;19.60;100.00
9899;BME280;4988;49.238;6.698;2023-07-29T00:15:13;98506.69;;;19.55;100.00
9899;BME280;4988;49.238;6.698;2023-07-29T00:17:38;98510.50;;;19.53;100.00
9899;BME280;4988;49.238;6.698;2023-07-29T00:20:05;98501.84;;;19.49;100.00
9899;BME280;4988;49.238;6.698;2023-07-29T00:22:30;98503.25;;;19.53;100.00
9899;BME280;4988;49.238;6.698;2023-07-29T00:24:56;98498.16;;;19.50;100.00
9899;BME280;4988;49.238;6.698;2023-07-29T00:27:22;98492.88;;;19.58;100.00
9899;BME280;4988;49.238;6.698;2023-07-29T00:29:48;98492.47;;;19.53;100.00
9899;BME280;4988;49.238;6.698;2023-07-29T00:32:13;98487.94;;;19.54;100.00
9899;BME280;4988;49.238;6.698;2023-07-29T00:34:38;98504.13;;;19.44;100.00
9899;BME280;4988;49.238;6.698;2023-07-29T00:37:04;98492.63;;;19.42;100.00
9899;BME280;4988;49.238;6.698;2023-07-29T00:39:31;98496.31;;;19.41;100.00
9899;BME280;4988;49.238;6.698;2023-07-29T00:41:56;98491.63;;;19.43;100.00
9899;BME280;4988;49.238;6.698;2023-07-29T00:44:21;98493.91;;;19.48;100.00
9899;BME280;4988;49.238;6.698;2023-07-29T00:46:49;98494.03;;;19.46;100.00
9899;BME280;4988;49.238;6.698;2023-07-29T00:49:15;98496.28;;;19.51;100.00
9899;BME280;4988;49.238;6.698;2023-07-29T00:51:40;98498.16;;;19.50;100.00
9899;BME280;4988;49.238;6.698;2023-07-29T00:54:06;98491.47;;;19.54;100.00
9899;BME280;4988;49.238;6.698;2023-07-29T00:56:31;98494.16;;;19.54;100.00
9899;BME280;4988;49.238;6.698;2023-07-29T00:58:56;98498.28;;;19.58;100.00
9899;BME280;4988;49.238;6.698;2023-07-29T01:01:26;98487.91;;;19.64;100.00
9899;BME280;4988;49.238;6.698;2023-07-29T01:03:52;98487.34;;;19.70;100.00
9899;BME280;4988;49.238;6.698;2023-07-29T01:06:33;98481.03;;;19.79;100.00
9899;BME280;4988;49.238;6.698;2023-07-29T01:09:07;98467.38;;;19.81;100.00
9899;BME280;4988;49.238;6.698;2023-07-29T01:14:34;98459.03;;;19.84;100.00
9899;BME280;4988;49.238;6.698;2023-07-29T01:17:03;98479.50;;;19.86;100.00
9899;BME280;4988;49.238;6.698;2023-07-29T01:19:54;98473.50;;;19.92;100.00
9899;BME280;4988;49.238;6.698;2023-07-29T01:22:21;98482.34;;;19.85;100.00
9899;BME280;4988;49.238;6.698;2023-07-29T01:24:46;98480.47;;;19.85;100.00
9899;BME280;4988;49.238;6.698;2023-07-29T01:27:11;98475.22;;;19.93;100.00
9899;BME280;4988;49.238;6.698;2023-07-29T01:29:37;98467.09;;;19.93;100.00
9899;BME280;4988;49.238;6.698;2023-07-29T01:32:10;98464.00;;;19.88;100.00
9899;BME280;4988;49.238;6.698;2023-07-29T01:34:48;98466.78;;;19.97;100.00
9899;BME280;4988;49.238;6.698;2023-07-29T01:37:19;98462.81;;;20.01;100.00
9899;BME280;4988;49.238;6.698;2023-07-29T01:39:49;98464.09;;;19.97;100.00
9899;BME280;4988;49.238;6.698;2023-07-29T01:42:15;98467.50;;;19.99;100.00
9899;BME280;4988;49.238;6.698;2023-07-29T01:44:41;98459.13;;;20.02;100.00
9899;BME280;4988;49.238;6.698;2023-07-29T01:47:08;98449.44;;;19.99;100.00
9899;BME280;4988;49.238;6.698;2023-07-29T01:49:33;98444.50;;;19.95;100.00
9899;BME280;4988;49.238;6.698;2023-07-29T01:51:58;98450.47;;;19.98;100.00
9899;BME280;4988;49.238;6.698;2023-07-29T01:54:24;98455.41;;;20.03;100.00
9899;BME280;4988;49.238;6.698;2023-07-29T01:56:49;98456.31;;;19.93;100.00
9899;BME280;4988;49.238;6.698;2023-07-29T01:59:16;98454.41;;;20.04;100.00
9899;BME280;4988;49.238;6.698;2023-07-29T02:01:41;98448.91;;;19.96;100.00
9899;BME280;4988;49.238;6.698;2023-07-29T02:04:07;98448.19;;;19.93;100.00
9899;BME280;4988;49.238;6.698;2023-07-29T02:06:33;98444.78;;;19.91;100.00
9899;BME280;4988;49.238;6.698;2023-07-29T02:08:58;98443.78;;;19.92;100.00
9899;BME280;4988;49.238;6.698;2023-07-29T02:11:23;98443.53;;;19.86;100.00
9899;BME280;4988;49.238;6.698;2023-07-29T02:13:53;98447.19;;;19.95;100.00
9899;BME280;4988;49.238;6.698;2023-07-29T02:16:19;98448.59;;;19.99;100.00
9899;BME280;4988;49.238;6.698;2023-07-29T02:18:44;98448.75;;;19.97;100.00
9899;BME280;4988;49.238;6.698;2023-07-29T02:21:10;98441.88;;;20.03;100.00
9899;BME280;4988;49.238;6.698;2023-07-29T02:23:35;98444.00;;;20.09;100.00
9899;BME280;4988;49.238;6.698;2023-07-29T02:26:00;98445.47;;;20.03;100.00
9899;BME280;4988;49.238;6.698;2023-07-29T02:28:26;98453.00;;;20.00;100.00
9899;BME280;4988;49.238;6.698;2023-07-29T02:31:20;98440.50;;;19.99;100.00
9899;BME280;4988;49.238;6.698;2023-07-29T02:33:46;98440.38;;;19.90;100.00
9899;BME280;4988;49.238;6.698;2023-07-29T02:36:12;98441.53;;;19.88;100.00
9899;BME280;4988;49.238;6.698;2023-07-29T02:38:38;98439.69;;;19.88;100.00
9899;BME280;4988;49.238;6.698;2023-07-29T02:41:04;98439.69;;;19.88;100.00
9899;BME280;4988;49.238;6.698;2023-07-29T02:43:29;98438.13;;;19.86;100.00
9899;BME280;4988;49.238;6.698;2023-07-29T02:45:54;98439.53;;;19.90;100.00
9899;BME280;4988;49.238;6.698;2023-07-29T02:48:20;98437.66;;;19.90;100.00
9899;BME280;4988;49.238;6.698;2023-07-29T02:50:45;98437.53;;;19.92;100.00
9899;BME280;4988;49.238;6.698;2023-07-29T02:53:10;98437.63;;;20.00;100.00
9899;BME280;4988;49.238;6.698;2023-07-29T02:55:39;98435.84;;;19.91;100.00
9899;BME280;4988;49.238;6.698;2023-07-29T02:58:05;98430.44;;;19.91;100.00
9899;BME280;4988;49.238;6.698;2023-07-29T03:00:33;98430.28;;;19.92;100.00
9899;BME280;4988;49.238;6.698;2023-07-29T03:02:59;98431.28;;;19.91;100.00
9899;BME280;4988;49.238;6.698;2023-07-29T03:05:27;98427.56;;;19.92;100.00
9899;BME280;4988;49.238;6.698;2023-07-29T03:07:52;98420.44;;;20.01;100.00
9899;BME280;4988;49.238;6.698;2023-07-29T03:10:18;98420.19;;;19.95;100.00
9899;BME280;4988;49.238;6.698;2023-07-29T03:12:43;98421.59;;;19.99;100.00
9899;BME280;4988;49.238;6.698;2023-07-29T03:15:08;98415.47;;;19.97;100.00
9899;BME280;4988;49.238;6.698;2023-07-29T03:17:34;98416.78;;;19.92;100.00
9899;BME280;4988;49.238;6.698;2023-07-29T03:19:59;98415.38;;;19.88;100.00
9899;BME280;4988;49.238;6.698;2023-07-29T03:22:24;98413.66;;;19.87;100.00
9899;BME280;4988;49.238;6.698;2023-07-29T03:24:50;98423.06;;;19.83;100.00
9899;BME280;4988;49.238;6.698;2023-07-29T03:27:15;98425.88;;;19.82;100.00
9899;BME280;4988;49.238;6.698;2023-07-29T03:29:41;98415.66;;;19.85;100.00
9899;BME280;4988;49.238;6.698;2023-07-29T03:32:07;98420.06;;;19.86;100.00
9899;BME280;4988;49.238;6.698;2023-07-29T03:34:32;98417.53;;;19.85;100.00
9899;BME280;4988;49.238;6.698;2023-07-29T03:36:59;98418.63;;;19.82;100.00
9899;BME280;4988;49.238;6.698;2023-07-29T03:39:24;98414.50;;;19.78;100.00
9899;BME280;4988;49.238;6.698;2023-07-29T03:41:49;98414.50;;;19.78;100.00
9899;BME280;4988;49.238;6.698;2023-07-29T03:44:15;98412.81;;;19.77;100.00
9899;BME280;4988;49.238;6.698;2023-07-29T03:46:40;98405.72;;;19.76;100.00
9899;BME280;4988;49.238;6.698;2023-07-29T03:49:05;98402.16;;;19.75;100.00
9899;BME280;4988;49.238;6.698;2023-07-29T03:51:31;98409.28;;;19.76;100.00
9899;BME280;4988;49.238;6.698;2023-07-29T03:53:56;98404.03;;;19.75;100.00
9899;BME280;4988;49.238;6.698;2023-07-29T03:56:21;98405.03;;;19.64;100.00
9899;BME280;4988;49.238;6.698;2023-07-29T03:58:47;98400.06;;;19.59;100.00
9899;BME280;4988;49.238;6.698;2023-07-29T04:01:15;98400.22;;;19.58;100.00
9899;BME280;4988;49.238;6.698;2023-07-29T04:03:40;98410.06;;;19.49;100.00
9899;BME280;4988;49.238;6.698;2023-07-29T04:06:05;98402.09;;;19.57;100.00
9899;BME280;4988;49.238;6.698;2023-07-29T04:08:31;98394.44;;;19.53;100.00
9899;BME280;4988;49.238;6.698;2023-07-29T04:10:56;98408.59;;;19.65;100.00
9899;BME280;4988;49.238;6.698;2023-07-29T04:13:22;98394.09;;;19.66;100.00
9899;BME280;4988;49.238;6.698;2023-07-29T04:15:47;98403.50;;;19.61;100.00
9899;BME280;4988;49.238;6.698;2023-07-29T04:18:12;98393.53;;;19.62;100.00
9899;BME280;4988;49.238;6.698;2023-07-29T04:20:38;98409.44;;;19.65;100.00
9899;BME280;4988;49.238;6.698;2023-07-29T04:23:03;98421.66;;;19.69;100.00
9899;BME280;4988;49.238;6.698;2023-07-29T04:25:28;98419.66;;;19.71;100.00
9899;BME280;4988;49.238;6.698;2023-07-29T04:27:54;98417.81;;;19.72;100.00
9899;BME280;4988;49.238;6.698;2023-07-29T04:30:19;98417.59;;;19.55;100.00
9899;BME280;4988;49.238;6.698;2023-07-29T04:32:44;98416.03;;;19.53;100.00
9899;BME280;4988;49.238;6.698;2023-07-29T04:35:13;98413.00;;;19.56;100.00
9899;BME280;4988;49.238;6.698;2023-07-29T04:37:38;98420.47;;;19.44;100.00
9899;BME280;4988;49.238;6.698;2023-07-29T04:40:04;98423.59;;;19.39;100.00
9899;BME280;4988;49.238;6.698;2023-07-29T04:42:29;98417.63;;;19.36;100.00
9899;BME280;4988;49.238;6.698;2023-07-29T04:44:55;98415.19;;;19.42;100.00
9899;BME280;4988;49.238;6.698;2023-07-29T04:47:20;98419.31;;;19.47;100.00
9899;BME280;4988;49.238;6.698;2023-07-29T04:49:45;98440.03;;;19.46;100.00
9899;BME280;4988;49.238;6.698;2023-07-29T04:52:11;98429.94;;;19.48;100.00
9899;BME280;4988;49.238;6.698;2023-07-29T04:54:36;98433.38;;;19.40;100.00
9899;BME280;4988;49.238;6.698;2023-07-29T04:57:01;98422.16;;;19.45;100.00
9899;BME280;4988;49.238;6.698;2023-07-29T04:59:27;98424.56;;;19.48;100.00
9899;BME280;4988;49.238;6.698;2023-07-29T05:01:52;98412.06;;;19.47;100.00
9899;BME280;4988;49.238;6.698;2023-07-29T05:04:17;98424.56;;;19.48;100.00
9899;BME280;4988;49.238;6.698;2023-07-29T05:06:43;98425.28;;;19.50;100.00
9899;BME280;4988;49.238;6.698;2023-07-29T05:09:15;98416.88;;;19.53;100.00
9899;BME280;4988;49.238;6.698;2023-07-29T05:11:42;98415.00;;;19.64;100.00
9899;BME280;4988;49.238;6.698;2023-07-29T05:14:08;98418.53;;;19.64;100.00
9899;BME280;4988;49.238;6.698;2023-07-29T05:16:34;98428.06;;;19.58;100.00
9899;BME280;4988;49.238;6.698;2023-07-29T05:19:00;98436.59;;;19.64;100.00
9899;BME280;4988;49.238;6.698;2023-07-29T05:21:25;98440.56;;;19.59;100.00
9899;BME280;4988;49.238;6.698;2023-07-29T05:23:50;98436.16;;;19.68;100.00
9899;BME280;4988;49.238;6.698;2023-07-29T05:26:16;98427.91;;;19.70;100.00
9899;BME280;4988;49.238;6.698;2023-07-29T05:28:41;98437.28;;;19.66;100.00
9899;BME280;4988;49.238;6.698;2023-07-29T05:31:06;98443.44;;;19.58;100.00
9899;BME280;4988;49.238;6.698;2023-07-29T05:33:31;98453.66;;;19.54;100.00
9899;BME280;4988;49.238;6.698;2023-07-29T05:35:57;98451.28;;;19.51;100.00
9899;BME280;4988;49.238;6.698;2023-07-29T05:38:22;98453.66;;;19.54;100.00
9899;BME280;4988;49.238;6.698;2023-07-29T05:40:48;98465.47;;;19.53;100.00
9899;BME280;4988;49.238;6.698;2023-07-29T05:43:14;98451.22;;;19.61;100.00
9899;BME280;4988;49.238;6.698;2023-07-29T05:45:39;98460.63;;;19.57;100.00
9899;BME280;4988;49.238;6.698;2023-07-29T05:48:05;98459.63;;;19.58;100.00
9899;BME280;4988;49.238;6.698;2023-07-29T05:50:30;98453.81;;;19.63;100.00
9899;BME280;4988;49.238;6.698;2023-07-29T05:52:56;98458.06;;;19.65;100.00
9899;BME280;4988;49.238;6.698;2023-07-29T05:55:21;98456.19;;;19.66;100.00
9899;BME280;4988;49.238;6.698;2023-07-29T05:57:46;98463.69;;;19.82;100.00
9899;BME280;4988;49.238;6.698;2023-07-29T06:00:12;98469.22;;;20.00;100.00
9899;BME280;4988;49.238;6.698;2023-07-29T06:02:37;98472.63;;;20.02;100.00
9899;BME280;4988;49.238;6.698;2023-07-29T06:05:03;98487.53;;;20.06;100.00
9899;BME280;4988;49.238;6.698;2023-07-29T06:07:29;98488.84;;;20.02;100.00
9899;BME280;4988;49.238;6.698;2023-07-29T06:09:55;98494.25;;;20.02;100.00
9899;BME280;4988;49.238;6.698;2023-07-29T06:12:21;98493.50;;;20.09;100.00
9899;BME280;4988;49.238;6.698;2023-07-29T06:14:46;98490.97;;;20.08;100.00
9899;BME280;4988;49.238;6.698;2023-07-29T06:17:11;98497.22;;;19.99;100.00
9899;BME280;4988;49.238;6.698;2023-07-29T06:19:37;98490.13;;;19.98;100.00
9899;BME280;4988;49.238;6.698;2023-07-29T06:22:03;98482.13;;;20.06;100.00
9899;BME280;4988;49.238;6.698;2023-07-29T06:24:29;98465.38;;;20.02;100.00
9899;BME280;4988;49.238;6.698;2023-07-29T06:26:54;98467.63;;;20.07;100.00
9899;BME280;4988;49.238;6.698;2023-07-29T06:29:20;98481.28;;;20.05;100.00
9899;BME280;4988;49.238;6.698;2023-07-29T06:31:45;98484.44;;;20.01;100.00
9899;BME280;4988;49.238;6.698;2023-07-29T06:34:10;98484.72;;;19.98;100.00
9899;BME280;4988;49.238;6.698;2023-07-29T06:36:36;98483.72;;;19.99;100.00
9899;BME280;4988;49.238;6.698;2023-07-29T06:39:01;98490.13;;;19.98;100.00
9899;BME280;4988;49.238;6.698;2023-07-29T06:41:26;98494.97;;;19.94;100.00
9899;BME280;4988;49.238;6.698;2023-07-29T06:43:51;98500.25;;;19.96;100.00
9899;BME280;4988;49.238;6.698;2023-07-29T06:46:17;98510.72;;;19.99;100.00
9899;BME280;4988;49.238;6.698;2023-07-29T06:48:42;98521.25;;;20.02;100.00
9899;BME280;4988;49.238;6.698;2023-07-29T06:51:07;98524.66;;;20.04;100.00
9899;BME280;4988;49.238;6.698;2023-07-29T06:53:33;98521.66;;;20.07;100.00
9899;BME280;4988;49.238;6.698;2023-07-29T06:55:58;98515.13;;;20.09;100.00
9899;BME280;4988;49.238;6.698;2023-07-29T06:58:24;98506.53;;;20.24;100.00
9899;BME280;4988;49.238;6.698;2023-07-29T07:00:50;98514.31;;;20.37;100.00
9899;BME280;4988;49.238;6.698;2023-07-29T07:03:15;98500.97;;;20.53;100.00
9899;BME280;4988;49.238;6.698;2023-07-29T07:05:40;98496.78;;;20.69;100.00
9899;BME280;4988;49.238;6.698;2023-07-29T07:08:06;98498.31;;;20.99;100.00
9899;BME280;4988;49.238;6.698;2023-07-29T07:10:31;98491.44;;;21.23;100.00
9899;BME280;4988;49.238;6.698;2023-07-29T07:12:59;98493.06;;;21.34;100.00
9899;BME280;4988;49.238;6.698;2023-07-29T07:15:24;98494.78;;;21.35;100.00
9899;BME280;4988;49.238;6.698;2023-07-29T07:17:51;98497.00;;;21.40;100.00
9899;BME280;4988;49.238;6.698;2023-07-29T07:20:16;98506.72;;;21.50;100.00
9899;BME280;4988;49.238;6.698;2023-07-29T07:22:41;98497.72;;;21.60;100.00
9899;BME280;4988;49.238;6.698;2023-07-29T07:25:07;98494.06;;;21.51;99.36
9899;BME280;4988;49.238;6.698;2023-07-29T07:27:33;98509.75;;;21.47;99.91
9899;BME280;4988;49.238;6.698;2023-07-29T07:29:58;98500.72;;;21.39;100.00
9899;BME280;4988;49.238;6.698;2023-07-29T07:32:23;98501.09;;;21.44;98.65
9899;BME280;4988;49.238;6.698;2023-07-29T07:34:49;98491.50;;;21.67;99.45
9899;BME280;4988;49.238;6.698;2023-07-29T07:37:14;98492.41;;;21.76;97.10
9899;BME280;4988;49.238;6.698;2023-07-29T07:39:39;98499.31;;;21.97;94.62
9899;BME280;4988;49.238;6.698;2023-07-29T07:42:05;98490.72;;;22.01;93.91
9899;BME280;4988;49.238;6.698;2023-07-29T07:44:30;98494.16;;;22.12;93.11
9899;BME280;4988;49.238;6.698;2023-07-29T07:46:56;98486.97;;;21.76;86.75
9899;BME280;4988;49.238;6.698;2023-07-29T07:49:22;98490.94;;;21.82;89.48
9899;BME280;4988;49.238;6.698;2023-07-29T07:51:47;98499.84;;;22.00;89.05
9899;BME280;4988;49.238;6.698;2023-07-29T07:54:12;98489.72;;;22.03;87.50
9899;BME280;4988;49.238;6.698;2023-07-29T07:56:38;98496.09;;;22.28;88.75
9899;BME280;4988;49.238;6.698;2023-07-29T07:59:03;98498.44;;;22.23;88.46
9899;BME280;4988;49.238;6.698;2023-07-29T08:01:34;98505.09;;;22.28;86.78
9899;BME280;4988;49.238;6.698;2023-07-29T08:04:00;98506.09;;;22.27;87.10
9899;BME280;4988;49.238;6.698;2023-07-29T08:06:26;98499.75;;;22.10;87.29
9899;BME280;4988;49.238;6.698;2023-07-29T08:08:51;98502.63;;;22.09;89.46
9899;BME280;4988;49.238;6.698;2023-07-29T08:11:16;98506.63;;;22.05;88.79
9899;BME280;4988;49.238;6.698;2023-07-29T08:13:42;98506.75;;;21.95;87.12
9899;BME280;4988;49.238;6.698;2023-07-29T08:16:07;98509.03;;;21.81;88.11
9899;BME280;4988;49.238;6.698;2023-07-29T08:18:32;98504.31;;;21.83;89.59
9899;BME280;4988;49.238;6.698;2023-07-29T08:20:59;98500.88;;;21.73;86.43
9899;BME280;4988;49.238;6.698;2023-07-29T08:23:29;98508.03;;;21.82;84.93
9899;BME280;4988;49.238;6.698;2023-07-29T08:25:56;98504.91;;;21.95;83.78
9899;BME280;4988;49.238;6.698;2023-07-29T08:28:26;98502.19;;;21.95;80.16
9899;BME280;4988;49.238;6.698;2023-07-29T08:30:52;98500.47;;;22.21;79.69
9899;BME280;4988;49.238;6.698;2023-07-29T08:33:17;98506.84;;;22.38;78.41
9899;BME280;4988;49.238;6.698;2023-07-29T08:35:42;98510.34;;;22.30;76.73
9899;BME280;4988;49.238;6.698;2023-07-29T08:38:08;98502.69;;;22.25;77.37
9899;BME280;4988;49.238;6.698;2023-07-29T08:40:34;98504.19;;;22.54;77.32
9899;BME280;4988;49.238;6.698;2023-07-29T08:43:04;98508.66;;;22.29;73.68
9899;BME280;4988;49.238;6.698;2023-07-29T08:45:32;98517.38;;;22.14;75.63
9899;BME280;4988;49.238;6.698;2023-07-29T08:48:00;98514.00;;;22.12;74.75
9899;BME280;4988;49.238;6.698;2023-07-29T08:50:28;98511.22;;;22.04;73.70
9899;BME280;4988;49.238;6.698;2023-07-29T08:52:54;98510.53;;;22.02;74.33
9899;BME280;4988;49.238;6.698;2023-07-29T08:55:21;98521.63;;;21.91;75.22
9899;BME280;4988;49.238;6.698;2023-07-29T08:57:46;98525.16;;;21.83;76.07
9899;BME280;4988;49.238;6.698;2023-07-29T09:00:12;98530.41;;;21.66;76.27
9899;BME280;4988;49.238;6.698;2023-07-29T09:02:38;98521.56;;;21.82;73.50
9899;BME280;4988;49.238;6.698;2023-07-29T09:05:03;98525.44;;;21.80;72.11
9899;BME280;4988;49.238;6.698;2023-07-29T09:07:30;98534.81;;;21.85;73.44
9899;BME280;4988;49.238;6.698;2023-07-29T09:09:55;98537.63;;;22.02;71.20
9899;BME280;4988;49.238;6.698;2023-07-29T09:12:21;98533.91;;;22.03;71.51
9899;BME280;4988;49.238;6.698;2023-07-29T09:14:46;98541.25;;;21.84;71.88
9899;BME280;4988;49.238;6.698;2023-07-29T09:17:12;98552.47;;;21.72;71.61
9899;BME280;4988;49.238;6.698;2023-07-29T09:19:37;98548.22;;;21.69;70.62
9899;BME280;4988;49.238;6.698;2023-07-29T09:22:03;98545.97;;;21.82;71.52
9899;BME280;4988;49.238;6.698;2023-07-29T09:24:28;98539.13;;;22.23;73.02
9899;BME280;4988;49.238;6.698;2023-07-29T09:26:57;98541.63;;;22.42;69.31
9899;BME280;4988;49.238;6.698;2023-07-29T09:29:23;98539.97;;;22.49;67.42
9899;BME280;4988;49.238;6.698;2023-07-29T09:31:49;98537.97;;;22.60;69.46
9899;BME280;4988;49.238;6.698;2023-07-29T09:34:15;98553.44;;;22.68;69.04
9899;BME280;4988;49.238;6.698;2023-07-29T09:36:41;98544.59;;;22.57;68.55
9899;BME280;4988;49.238;6.698;2023-07-29T09:39:11;98537.31;;;22.66;69.38
9899;BME280;4988;49.238;6.698;2023-07-29T09:41:38;98542.63;;;22.76;67.79
9899;BME280;4988;49.238;6.698;2023-07-29T09:44:04;98550.28;;;22.80;68.58
9899;BME280;4988;49.238;6.698;2023-07-29T09:49:00;98547.94;;;22.51;69.55
9899;BME280;4988;49.238;6.698;2023-07-29T09:51:26;98551.88;;;22.30;69.81
9899;BME280;4988;49.238;6.698;2023-07-29T09:53:51;98558.69;;;22.35;68.72
9899;BME280;4988;49.238;6.698;2023-07-29T09:56:17;98560.00;;;22.30;69.60
9899;BME280;4988;49.238;6.698;2023-07-29T09:58:44;98558.47;;;22.28;70.16
9899;BME280;4988;49.238;6.698;2023-07-29T10:01:11;98564.00;;;22.18;70.78
9899;BME280;4988;49.238;6.698;2023-07-29T10:03:37;98561.53;;;22.33;70.58
9899;BME280;4988;49.238;6.698;2023-07-29T10:06:03;98550.19;;;22.64;69.97
9899;BME280;4988;49.238;6.698;2023-07-29T10:08:30;98556.41;;;22.91;68.22
9899;BME280;4988;49.238;6.698;2023-07-29T10:10:59;98547.59;;;22.89;66.42
9899;BME280;4988;49.238;6.698;2023-07-29T10:13:25;98557.41;;;22.90;67.47
9899;BME280;4988;49.238;6.698;2023-07-29T10:15:51;98560.66;;;22.85;64.83
9899;BME280;4988;49.238;6.698;2023-07-29T10:18:18;98552.28;;;22.78;65.14
9899;BME280;4988;49.238;6.698;2023-07-29T10:20:44;98552.16;;;22.88;66.38
9899;BME280;4988;49.238;6.698;2023-07-29T10:23:11;98541.16;;;22.98;67.04
9899;BME280;4988;49.238;6.698;2023-07-29T10:25:38;98544.22;;;23.03;67.70
9899;BME280;4988;49.238;6.698;2023-07-29T10:28:07;98542.19;;;22.89;66.49
9899;BME280;4988;49.238;6.698;2023-07-29T10:30:33;98541.84;;;22.92;68.13
9899;BME280;4988;49.238;6.698;2023-07-29T10:33:02;98538.81;;;23.03;68.12
9899;BME280;4988;49.238;6.698;2023-07-29T10:35:27;98546.19;;;23.44;68.51
9899;BME280;4988;49.238;6.698;2023-07-29T10:37:53;98540.13;;;23.67;66.20
9899;BME280;4988;49.238;6.698;2023-07-29T10:40:20;98532.97;;;23.82;63.95
9899;BME280;4988;49.238;6.698;2023-07-29T10:43:02;98530.78;;;23.77;61.28
9899;BME280;4988;49.238;6.698;2023-07-29T10:45:36;98529.41;;;23.73;63.31
9899;BME280;4988;49.238;6.698;2023-07-29T10:51:36;98539.94;;;23.93;62.20
9899;BME280;4988;49.238;6.698;2023-07-29T10:54:12;98544.19;;;23.79;62.05
9899;BME280;4988;49.238;6.698;2023-07-29T10:56:47;98543.31;;;23.78;62.47
9899;BME280;4988;49.238;6.698;2023-07-29T11:01:41;98541.41;;;24.29;63.77
9899;BME280;4988;49.238;6.698;2023-07-29T11:04:26;98535.09;;;24.45;60.80
9899;BME280;4988;49.238;6.698;2023-07-29T11:12:42;98536.59;;;24.55;61.84
9899;BME280;4988;49.238;6.698;2023-07-29T11:17:41;98534.59;;;24.33;61.05
9899;BME280;4988;49.238;6.698;2023-07-29T11:20:08;98536.50;;;24.24;59.41
9899;BME280;4988;49.238;6.698;2023-07-29T11:22:34;98533.50;;;24.02;60.10
9899;BME280;4988;49.238;6.698;2023-07-29T11:24:59;98520.34;;;24.31;59.57
9899;BME280;4988;49.238;6.698;2023-07-29T11:27:25;98533.06;;;24.30;59.93
9899;BME280;4988;49.238;6.698;2023-07-29T11:29:50;98519.31;;;24.32;59.11
9899;BME280;4988;49.238;6.698;2023-07-29T11:32:16;98519.47;;;24.30;60.79
9899;BME280;4988;49.238;6.698;2023-07-29T11:34:42;98526.31;;;24.18;60.16
9899;BME280;4988;49.238;6.698;2023-07-29T11:37:10;98525.28;;;24.19;60.55
9899;BME280;4988;49.238;6.698;2023-07-29T11:39:44;98530.59;;;24.04;61.80
9899;BME280;4988;49.238;6.698;2023-07-29T11:42:15;98526.31;;;23.85;61.13
9899;BME280;4988;49.238;6.698;2023-07-29T11:44:40;98531.63;;;23.95;61.30
9899;BME280;4988;49.238;6.698;2023-07-29T11:47:12;98527.00;;;23.87;61.96
9899;BME280;4988;49.238;6.698;2023-07-29T11:49:41;98521.56;;;24.12;62.00
9899;BME280;4988;49.238;6.698;2023-07-29T11:52:08;98513.53;;;24.35;60.69
9899;BME280;4988;49.238;6.698;2023-07-29T11:54:37;98511.22;;;24.55;60.43
9899;BME280;4988;49.238;6.698;2023-07-29T11:57:07;98515.31;;;24.99;61.98
9899;BME280;4988;49.238;6.698;2023-07-29T11:59:34;98507.94;;;25.31;60.62
9899;BME280;4988;49.238;6.698;2023-07-29T12:02:01;98516.25;;;25.14;58.00
9899;BME280;4988;49.238;6.698;2023-07-29T12:04:28;98524.94;;;25.10;60.49
9899;BME280;4988;49.238;6.698;2023-07-29T12:06:54;98525.28;;;25.07;59.76
9899;BME280;4988;49.238;6.698;2023-07-29T12:09:20;98527.88;;;25.08;59.99
9899;BME280;4988;49.238;6.698;2023-07-29T12:11:46;98529.78;;;25.23;60.03
9899;BME280;4988;49.238;6.698;2023-07-29T12:14:11;98525.28;;;25.07;59.22
9899;BME280;4988;49.238;6.698;2023-07-29T12:16:43;98524.16;;;25.01;58.47
9899;BME280;4988;49.238;6.698;2023-07-29T12:19:12;98518.81;;;25.08;56.65
9899;BME280;4988;49.238;6.698;2023-07-29T12:21:37;98525.13;;;25.08;57.08
9899;BME280;4988;49.238;6.698;2023-07-29T12:24:03;98526.16;;;25.07;57.49
9899;BME280;4988;49.238;6.698;2023-07-29T12:26:29;98527.50;;;25.11;57.62
9899;BME280;4988;49.238;6.698;2023-07-29T12:28:54;98528.41;;;25.03;57.57
9899;BME280;4988;49.238;6.698;2023-07-29T12:31:21;98524.41;;;24.83;56.35
9899;BME280;4988;49.238;6.698;2023-07-29T12:33:47;98521.56;;;24.76;57.34
9899;BME280;4988;49.238;6.698;2023-07-29T12:36:12;98520.56;;;24.61;57.12
9899;BME280;4988;49.238;6.698;2023-07-29T12:38:37;98520.72;;;24.67;58.48
9899;BME280;4988;49.238;6.698;2023-07-29T12:41:03;98516.63;;;24.63;57.79
9899;BME280;4988;49.238;6.698;2023-07-29T12:43:28;98512.53;;;24.76;58.36
9899;BME280;4988;49.238;6.698;2023-07-29T12:45:54;98501.28;;;25.10;57.23
9899;BME280;4988;49.238;6.698;2023-07-29T12:48:19;98504.75;;;25.27;58.00
9899;BME280;4988;49.238;6.698;2023-07-29T12:50:44;98498.31;;;25.20;57.40
9899;BME280;4988;49.238;6.698;2023-07-29T12:53:10;98506.44;;;25.28;58.77
9899;BME280;4988;49.238;6.698;2023-07-29T12:55:36;98500.63;;;25.08;57.93
9899;BME280;4988;49.238;6.698;2023-07-29T12:58:01;98502.00;;;25.04;59.75
9899;BME280;4988;49.238;6.698;2023-07-29T13:00:27;98500.66;;;25.00;57.39
9899;BME280;4988;49.238;6.698;2023-07-29T13:02:53;98514.75;;;24.72;58.29
9899;BME280;4988;49.238;6.698;2023-07-29T13:05:19;98505.75;;;24.71;59.42
9899;BME280;4988;49.238;6.698;2023-07-29T13:07:44;98516.13;;;24.76;59.29
9899;BME280;4988;49.238;6.698;2023-07-29T13:10:10;98499.19;;;24.89;59.28
9899;BME280;4988;49.238;6.698;2023-07-29T13:12:36;98495.44;;;24.90;59.52
9899;BME280;4988;49.238;6.698;2023-07-29T13:15:01;98493.94;;;24.87;59.21
9899;BME280;4988;49.238;6.698;2023-07-29T13:17:27;98500.00;;;24.98;58.27
9899;BME280;4988;49.238;6.698;2023-07-29T13:19:53;98493.34;;;25.00;58.83
9899;BME280;4988;49.238;6.698;2023-07-29T13:22:19;98497.41;;;25.04;58.79
9899;BME280;4988;49.238;6.698;2023-07-29T13:24:45;98494.72;;;24.96;58.25
9899;BME280;4988;49.238;6.698;2023-07-29T13:27:10;98489.25;;;25.04;59.01
9899;BME280;4988;49.238;6.698;2023-07-29T13:29:36;98486.59;;;25.19;58.12